createdAt,value
2018-03-19T00:01:50.661Z,3.73
2018-03-19T00:04:18.732Z,3.20
2018-03-19T00:06:46.816Z,3.83
2018-03-19T00:09:14.865Z,3.73
2018-03-19T00:11:42.464Z,4.33
2018-03-19T00:14:10.256Z,4.40
2018-03-19T00:16:38.335Z,4.83
2018-03-19T00:19:06.187Z,4.30
2018-03-19T00:21:33.776Z,4.03
2018-03-19T00:24:01.359Z,4.17
2018-03-19T00:26:28.894Z,4.83
2018-03-19T00:28:56.799Z,5.03
2018-03-19T00:31:24.337Z,4.47
2018-03-19T00:33:51.916Z,4.83
2018-03-19T00:36:19.448Z,4.23
2018-03-19T00:38:47.036Z,5.63
2018-03-19T00:41:14.624Z,4.80
2018-03-19T00:43:42.164Z,5.77
2018-03-19T00:46:10.274Z,5.13
2018-03-19T00:48:37.862Z,5.23
2018-03-19T00:51:05.398Z,5.17
2018-03-19T00:53:33.375Z,5.03
2018-03-19T00:56:01.720Z,5.77
2018-03-19T00:58:29.259Z,5.27
2018-03-19T01:00:57.244Z,5.23
2018-03-19T01:03:24.836Z,6.83
2018-03-19T01:05:52.420Z,5.77
2018-03-19T01:08:20.018Z,5.77
2018-03-19T01:10:47.602Z,5.80
2018-03-19T01:13:15.676Z,13.93
2018-03-19T01:15:43.216Z,6.27
2018-03-19T01:18:11.179Z,5.93
2018-03-19T01:20:38.785Z,5.50
2018-03-19T01:23:06.324Z,6.33
2018-03-19T01:25:33.863Z,6.10
2018-03-19T01:28:01.444Z,6.50
2018-03-19T01:30:29.003Z,6.20
2018-03-19T01:32:57.112Z,5.67
2018-03-19T01:35:24.660Z,6.00
2018-03-19T01:37:52.258Z,5.83
2018-03-19T01:40:19.808Z,8.87
2018-03-19T01:42:47.396Z,6.60
2018-03-19T01:45:14.980Z,6.57
2018-03-19T01:47:42.968Z,6.83
2018-03-19T01:50:10.555Z,7.67
2018-03-19T01:52:49.065Z,6.53
2018-03-19T01:55:16.604Z,6.43
2018-03-19T01:57:44.184Z,6.23
2018-03-19T02:00:11.736Z,6.17
2018-03-19T02:02:39.564Z,6.40
2018-03-19T02:05:07.152Z,7.07
2018-03-19T02:07:34.691Z,6.03
2018-03-19T02:10:02.294Z,6.03
2018-03-19T02:12:29.832Z,6.03
2018-03-19T02:14:57.890Z,5.93
2018-03-19T02:17:25.431Z,6.63
2018-03-19T02:19:52.985Z,5.53
2018-03-19T02:22:20.997Z,4.40
2018-03-19T02:24:48.550Z,5.10
2018-03-19T02:27:16.136Z,5.37
2018-03-19T02:29:43.689Z,7.33
2018-03-19T02:32:11.290Z,5.40
2018-03-19T02:34:38.888Z,5.50
2018-03-19T02:37:07.454Z,7.93
2018-03-19T02:39:35.448Z,4.90
2018-03-19T02:42:03.024Z,7.40
2018-03-19T02:44:30.559Z,5.23
2018-03-19T02:46:58.152Z,6.30
2018-03-19T02:49:25.762Z,7.47
2018-03-19T02:51:53.374Z,5.53
2018-03-19T02:54:20.931Z,7.97
2018-03-19T02:56:48.491Z,9.33
2018-03-19T02:59:16.370Z,7.73
2018-03-19T03:01:43.956Z,6.80
2018-03-19T03:04:11.512Z,11.67
2018-03-19T03:06:39.093Z,7.27
2018-03-19T03:09:06.646Z,8.00
2018-03-19T03:11:34.223Z,8.10
2018-03-19T03:14:01.772Z,5.57
2018-03-19T03:16:29.351Z,5.77
2018-03-19T03:18:56.900Z,7.00
2018-03-19T03:21:24.485Z,6.23
2018-03-19T03:23:52.023Z,7.83
2018-03-19T03:26:19.616Z,9.43
2018-03-19T03:28:47.165Z,6.63
2018-03-19T03:31:14.755Z,9.60
2018-03-19T03:33:42.291Z,8.33
2018-03-19T03:36:09.834Z,8.33
2018-03-19T03:38:37.388Z,6.53
2018-03-19T03:41:04.967Z,7.80
2018-03-19T03:43:32.546Z,8.53
2018-03-19T03:46:00.138Z,7.17
2018-03-19T03:48:27.864Z,9.07
2018-03-19T03:50:55.928Z,6.40
2018-03-19T03:53:23.465Z,8.47
2018-03-19T03:55:51.047Z,7.63
2018-03-19T03:58:18.596Z,9.20
2018-03-19T04:00:46.172Z,9.03
2018-03-19T04:03:13.763Z,9.03
2018-03-19T04:05:41.598Z,8.20
2018-03-19T04:08:09.198Z,8.07
2018-03-19T04:10:36.763Z,7.93
2018-03-19T04:13:04.569Z,8.00
2018-03-19T04:15:32.184Z,7.70
2018-03-19T04:17:59.764Z,7.53
2018-03-19T04:20:27.349Z,7.83
2018-03-19T04:22:54.945Z,9.87
2018-03-19T04:25:22.503Z,7.40
2018-03-19T04:27:50.052Z,7.57
2018-03-19T04:30:17.636Z,9.70
2018-03-19T04:32:45.188Z,6.80
2018-03-19T04:35:12.776Z,6.13
2018-03-19T04:37:40.931Z,7.57
2018-03-19T04:40:08.524Z,7.63
2018-03-19T04:42:36.081Z,7.73
2018-03-19T04:45:03.660Z,6.07
2018-03-19T04:47:31.204Z,6.13
2018-03-19T04:49:58.793Z,6.07
2018-03-19T04:52:26.342Z,6.33
2018-03-19T04:54:54.537Z,6.63
2018-03-19T04:57:22.077Z,6.07
2018-03-19T04:59:49.652Z,7.40
2018-03-19T05:02:17.196Z,6.07
2018-03-19T05:04:44.787Z,7.43
2018-03-19T05:07:12.554Z,7.33
2018-03-19T05:09:40.141Z,5.13
2018-03-19T05:12:07.723Z,8.07
2018-03-19T05:14:36.077Z,6.43
2018-03-19T05:17:03.668Z,6.07
2018-03-19T05:19:31.207Z,6.07
2018-03-19T05:21:58.791Z,7.00
2018-03-19T05:24:26.327Z,5.90
2018-03-19T05:26:53.940Z,6.90
2018-03-19T05:29:21.488Z,6.53
2018-03-19T05:31:49.064Z,7.20
2018-03-19T05:34:16.652Z,6.87
2018-03-19T05:36:45.052Z,7.03
2018-03-19T05:39:12.644Z,8.20
2018-03-19T05:41:40.233Z,6.60
2018-03-19T05:44:07.788Z,6.50
2018-03-19T05:46:35.390Z,7.60
2018-03-19T05:49:03.870Z,6.33
2018-03-19T05:51:35.421Z,9.00
2018-03-19T05:54:03.720Z,7.07
2018-03-19T05:56:31.287Z,10.17
2018-03-19T05:58:58.894Z,8.57
2018-03-19T06:01:27.409Z,8.27
2018-03-19T06:03:56.037Z,9.33
2018-03-19T06:06:23.640Z,8.13
2018-03-19T06:08:51.985Z,8.60
2018-03-19T06:11:19.543Z,12.87
2018-03-19T06:13:47.491Z,9.20
2018-03-19T06:16:16.111Z,8.88
2018-03-19T06:18:44.312Z,8.03
2018-03-19T06:21:12.638Z,7.63
2018-03-19T06:23:40.191Z,6.75
2018-03-19T06:26:08.261Z,5.40
2018-03-19T06:28:35.892Z,6.37
2018-03-19T06:31:03.899Z,6.53
2018-03-19T06:33:32.058Z,6.30
2018-03-19T06:35:59.646Z,8.13
2018-03-19T06:38:27.597Z,7.83
2018-03-19T06:40:55.518Z,7.17
2018-03-19T06:43:23.142Z,7.22
2018-03-19T06:45:51.340Z,6.43
2018-03-19T06:48:19.066Z,6.63
2018-03-19T06:50:46.983Z,7.13
2018-03-19T06:53:15.362Z,8.10
2018-03-19T06:55:43.037Z,10.10
2018-03-19T06:58:10.639Z,10.48
2018-03-19T07:00:38.295Z,20.92
2018-03-19T07:03:06.879Z,15.77
2018-03-19T07:05:34.706Z,16.03
2018-03-19T07:08:02.469Z,17.12
2018-03-19T07:10:30.080Z,13.97
2018-03-19T07:12:58.315Z,23.97
2018-03-19T07:15:25.870Z,20.47
2018-03-19T07:17:53.482Z,21.77
2018-03-19T07:20:21.063Z,27.67
2018-03-19T07:22:48.686Z,20.10
2018-03-19T07:25:16.540Z,19.35
2018-03-19T07:27:44.946Z,22.42
2018-03-19T07:30:12.516Z,38.33
2018-03-19T07:32:40.126Z,33.03
2018-03-19T07:35:07.906Z,47.70
2018-03-19T07:37:35.958Z,39.23
2018-03-19T07:40:03.754Z,45.70
2018-03-19T07:42:31.465Z,35.33
2018-03-19T07:44:59.269Z,45.97
2018-03-19T07:47:28.887Z,41.75
2018-03-19T07:49:58.586Z,32.08
2018-03-19T07:52:26.550Z,39.63
2018-03-19T07:54:54.552Z,47.37
2018-03-19T07:57:23.684Z,43.67
2018-03-19T07:59:51.992Z,32.77
2018-03-19T08:02:19.750Z,27.80
2018-03-19T08:04:48.124Z,28.53
2018-03-19T08:07:15.755Z,25.13
2018-03-19T08:09:43.402Z,37.58
2018-03-19T08:12:11.254Z,39.03
2018-03-19T08:14:38.871Z,28.40
2018-03-19T08:17:07.249Z,21.73
2018-03-19T08:19:34.845Z,27.57
2018-03-19T08:22:03.396Z,31.20
2018-03-19T08:24:31.222Z,30.03
2018-03-19T08:27:07.555Z,29.00
2018-03-19T08:29:35.285Z,25.17
2018-03-19T08:32:02.915Z,20.77
2018-03-19T08:34:30.626Z,27.77
2018-03-19T08:36:58.377Z,24.20
2018-03-19T08:39:26.483Z,27.65
2018-03-19T08:41:54.583Z,23.33
2018-03-19T08:44:22.463Z,28.63
2018-03-19T08:46:50.083Z,32.93
2018-03-19T08:49:17.663Z,28.90
2018-03-19T08:51:45.480Z,28.83
2018-03-19T08:54:13.221Z,33.43
2018-03-19T08:56:40.829Z,34.60
2018-03-19T08:59:08.419Z,26.97
2018-03-19T09:01:36.028Z,21.30
2018-03-19T09:04:04.643Z,27.50
2018-03-19T09:06:32.429Z,22.23
2018-03-19T09:09:00.035Z,22.25
2018-03-19T09:11:28.895Z,24.17
2018-03-19T09:13:56.501Z,19.00
2018-03-19T09:16:24.685Z,18.00
2018-03-19T09:18:52.468Z,20.23
2018-03-19T09:21:20.070Z,22.30
2018-03-19T09:23:47.898Z,25.67
2018-03-19T09:26:16.012Z,23.97
2018-03-19T09:28:44.084Z,37.60
2018-03-19T09:33:35.636Z,30.40
2018-03-19T09:36:04.017Z,25.70
2018-03-19T09:38:31.640Z,27.20
2018-03-19T09:40:59.521Z,31.27
2018-03-19T09:43:28.189Z,33.23
2018-03-19T09:45:55.793Z,29.27
2018-03-19T09:48:24.234Z,30.58
2018-03-19T09:50:52.006Z,25.70
2018-03-19T09:53:19.578Z,24.87
2018-03-19T09:55:47.394Z,22.80
2018-03-19T09:58:15.003Z,33.60
2018-03-19T10:00:42.576Z,36.17
2018-03-19T10:03:10.828Z,33.33
2018-03-19T10:05:38.432Z,39.60
2018-03-19T10:08:06.037Z,43.77
2018-03-19T10:10:33.887Z,44.17
2018-03-19T10:13:01.446Z,28.03
2018-03-19T10:15:29.128Z,42.67
2018-03-19T10:17:56.714Z,36.07
2018-03-19T10:20:24.846Z,51.70
2018-03-19T10:22:52.443Z,41.90
2018-03-19T10:25:20.051Z,51.13
2018-03-19T10:27:47.722Z,54.50
2018-03-19T10:30:15.297Z,46.57
2018-03-19T10:32:43.459Z,43.58
2018-03-19T10:35:11.208Z,49.05
2018-03-19T10:37:38.974Z,39.57
2018-03-19T10:40:06.599Z,24.43
2018-03-19T10:42:34.713Z,37.58
2018-03-19T10:45:03.158Z,25.40
2018-03-19T10:47:31.221Z,32.10
2018-03-19T10:49:59.028Z,34.83
2018-03-19T10:52:26.599Z,27.43
2018-03-19T10:54:54.206Z,24.50
2018-03-19T10:57:21.783Z,19.70
2018-03-19T10:59:49.399Z,21.73
2018-03-19T11:05:24.585Z,23.50
2018-03-19T11:07:58.133Z,19.60
2018-03-19T11:10:25.871Z,20.98
2018-03-19T11:12:53.858Z,20.48
2018-03-19T11:15:21.604Z,20.35
2018-03-19T11:17:49.895Z,19.03
2018-03-19T11:20:17.502Z,15.27
2018-03-19T11:22:45.135Z,14.20
2018-03-19T11:25:12.875Z,15.10
2018-03-19T11:27:40.482Z,18.47
2018-03-19T11:30:08.126Z,18.43
2018-03-19T11:32:35.758Z,15.73
2018-03-19T11:35:03.705Z,16.40
2018-03-19T11:37:31.335Z,14.50
2018-03-19T11:39:58.960Z,17.87
2018-03-19T11:42:26.535Z,13.45
2018-03-19T11:44:55.392Z,13.13
2018-03-19T11:47:23.459Z,12.30
2018-03-19T11:49:51.046Z,20.90
2018-03-19T11:52:18.988Z,45.17
2018-03-19T11:54:46.676Z,56.43
2018-03-19T11:57:14.282Z,22.13
2018-03-19T11:59:41.932Z,25.17
2018-03-19T12:02:10.458Z,19.10
2018-03-19T12:04:39.054Z,13.30
2018-03-19T12:07:06.738Z,18.93
2018-03-19T12:09:34.302Z,16.57
2018-03-19T12:12:01.905Z,17.70
2018-03-19T12:14:29.468Z,15.65
2018-03-19T12:16:57.070Z,17.90
2018-03-19T12:19:24.704Z,17.23
2018-03-19T12:21:52.411Z,19.63
2018-03-19T12:24:19.982Z,20.80
2018-03-19T12:26:47.660Z,19.40
2018-03-19T12:29:15.264Z,17.37
2018-03-19T12:31:42.841Z,17.87
2018-03-19T12:34:10.445Z,14.00
2018-03-19T12:36:38.004Z,13.20
2018-03-19T12:39:05.790Z,19.13
2018-03-19T12:41:33.337Z,19.17
2018-03-19T12:44:02.232Z,16.97
2018-03-19T12:46:29.792Z,19.08
2018-03-19T12:48:57.597Z,19.43
2018-03-19T12:51:31.245Z,18.80
2018-03-19T12:53:58.824Z,21.00
2018-03-19T12:56:26.409Z,18.57
2018-03-19T12:58:54.016Z,21.93
2018-03-19T13:01:22.318Z,21.17
2018-03-19T13:03:49.856Z,20.30
2018-03-19T13:06:17.461Z,19.47
2018-03-19T13:08:45.015Z,18.62
2018-03-19T13:11:12.656Z,23.70
2018-03-19T13:13:40.227Z,20.58
2018-03-19T13:16:07.800Z,20.20
2018-03-19T13:18:35.396Z,18.33
2018-03-19T13:21:03.822Z,18.25
2018-03-19T13:23:31.489Z,19.35
2018-03-19T13:25:59.783Z,17.93
2018-03-19T13:28:27.401Z,20.13
2018-03-19T13:30:54.977Z,18.87
2018-03-19T13:33:22.532Z,20.17
2018-03-19T13:35:50.136Z,23.10
2018-03-19T13:38:17.745Z,27.80
2018-03-19T13:40:45.935Z,25.90
2018-03-19T13:43:13.503Z,33.73
2018-03-19T13:45:41.113Z,35.90
2018-03-19T13:48:09.247Z,46.15
2018-03-19T13:50:37.440Z,41.97
2018-03-19T13:53:05.009Z,34.57
2018-03-19T13:55:32.646Z,43.93
2018-03-19T13:58:00.682Z,35.23
2018-03-19T14:00:28.296Z,41.87
2018-03-19T14:02:56.669Z,46.28
2018-03-19T14:05:24.893Z,38.77
2018-03-19T14:07:52.842Z,37.70
2018-03-19T14:10:20.399Z,35.97
2018-03-19T14:12:48.008Z,36.17
2018-03-19T14:15:15.565Z,34.50
2018-03-19T14:17:43.150Z,33.43
2018-03-19T14:20:11.165Z,31.03
2018-03-19T14:22:39.358Z,31.27
2018-03-19T14:25:07.953Z,29.37
2018-03-19T14:27:36.532Z,31.90
2018-03-19T14:30:04.105Z,27.43
2018-03-19T14:32:31.850Z,26.30
2018-03-19T14:34:59.914Z,23.97
2018-03-19T14:37:27.521Z,24.10
2018-03-19T14:39:55.139Z,27.40
2018-03-19T14:42:23.252Z,22.93
2018-03-19T14:44:50.877Z,23.03
2018-03-19T14:47:18.448Z,25.63
2018-03-19T14:49:46.129Z,27.13
2018-03-19T14:52:14.460Z,21.10
2018-03-19T14:54:42.321Z,24.13
2018-03-19T14:57:10.145Z,29.33
2018-03-19T14:59:39.825Z,24.47
2018-03-19T15:02:07.386Z,19.37
2018-03-19T15:04:35.850Z,26.97
2018-03-19T15:07:03.468Z,24.80
2018-03-19T15:09:31.086Z,23.13
2018-03-19T15:11:58.693Z,21.97
2018-03-19T15:14:26.296Z,24.10
2018-03-19T15:16:53.851Z,26.07
2018-03-19T15:19:22.301Z,22.70
2018-03-19T15:21:50.274Z,19.50
2018-03-19T15:24:17.841Z,20.50
2018-03-19T15:26:45.419Z,24.87
2018-03-19T15:29:13.015Z,27.83
2018-03-19T15:31:41.422Z,24.53
2018-03-19T15:34:09.038Z,23.57
2018-03-19T15:36:37.022Z,23.10
2018-03-19T15:39:04.655Z,26.83
2018-03-19T15:41:32.493Z,21.33
2018-03-19T15:44:00.131Z,20.97
2018-03-19T15:46:27.728Z,21.10
2018-03-19T15:48:55.875Z,22.63
2018-03-19T15:51:23.542Z,22.00
2018-03-19T15:53:51.096Z,23.67
2018-03-19T15:56:20.109Z,24.00
2018-03-19T15:58:48.025Z,21.60
2018-03-19T16:01:15.951Z,23.83
2018-03-19T16:03:44.370Z,20.30
2018-03-19T16:06:16.365Z,20.47
2018-03-19T16:08:45.385Z,15.73
2018-03-19T16:11:15.024Z,18.63
2018-03-19T16:13:42.575Z,16.87
2018-03-19T16:16:11.444Z,16.80
2018-03-19T16:18:38.997Z,18.00
2018-03-19T16:21:09.061Z,16.37
2018-03-19T16:23:36.624Z,16.57
2018-03-19T16:26:05.023Z,17.90
2018-03-19T16:28:32.625Z,14.67
2018-03-19T16:31:00.175Z,17.77
2018-03-19T16:33:28.684Z,15.37
2018-03-19T16:35:58.147Z,18.63
2018-03-19T16:38:26.093Z,17.20
2018-03-19T16:40:54.150Z,18.80
2018-03-19T16:43:22.890Z,16.50
2018-03-19T16:45:50.741Z,19.50
2018-03-19T16:48:19.092Z,17.70
2018-03-19T16:50:47.063Z,18.90
2018-03-19T16:53:14.685Z,17.43
2018-03-19T16:55:43.096Z,21.97
2018-03-19T16:58:11.712Z,20.63
2018-03-19T17:00:39.652Z,17.97
2018-03-19T17:03:07.592Z,21.20
2018-03-19T17:05:35.160Z,23.53
2018-03-19T17:08:02.782Z,27.47
2018-03-19T17:10:31.156Z,29.67
2018-03-19T17:12:58.788Z,21.37
2018-03-19T17:15:27.200Z,19.23
2018-03-19T17:17:54.814Z,26.10
2018-03-19T17:20:22.891Z,17.97
2018-03-19T17:22:50.881Z,18.00
2018-03-19T17:25:19.831Z,19.03
2018-03-19T17:27:49.303Z,19.70
2018-03-19T17:30:18.694Z,16.23
2018-03-19T17:32:46.757Z,16.70
2018-03-19T17:35:14.761Z,15.87
2018-03-19T17:37:43.330Z,20.57
2018-03-19T17:40:12.028Z,19.73
2018-03-19T17:42:40.235Z,17.40
2018-03-19T17:45:09.095Z,17.73
2018-03-19T17:47:37.483Z,17.20
2018-03-19T17:50:05.847Z,18.30
2018-03-19T17:52:35.239Z,17.03
2018-03-19T17:55:03.619Z,18.67
2018-03-19T17:57:33.585Z,14.50
2018-03-19T18:00:02.241Z,17.23
2018-03-19T18:02:30.522Z,15.80
2018-03-19T18:04:59.130Z,16.10
2018-03-19T18:07:28.260Z,17.30
2018-03-19T18:09:56.511Z,15.77
2018-03-19T18:12:25.714Z,17.73
2018-03-19T18:14:53.987Z,17.73
2018-03-19T18:17:22.630Z,13.57
2018-03-19T18:19:51.621Z,16.53
2018-03-19T18:22:19.939Z,16.37
2018-03-19T18:24:51.266Z,20.77
2018-03-19T18:27:21.245Z,17.90
2018-03-19T18:29:50.666Z,16.80
2018-03-19T18:32:20.497Z,16.90
2018-03-19T18:34:50.656Z,15.23
2018-03-19T18:37:19.783Z,15.50
2018-03-19T18:39:48.832Z,14.40
2018-03-19T18:42:17.455Z,15.03
2018-03-19T18:44:45.660Z,14.77
2018-03-19T18:47:14.847Z,14.83
2018-03-19T18:49:43.110Z,15.53
2018-03-19T18:52:11.598Z,15.67
2018-03-19T18:54:40.584Z,15.03
2018-03-19T18:57:08.903Z,13.97
2018-03-19T18:59:37.345Z,15.70
2018-03-19T19:02:06.348Z,14.93
2018-03-19T19:04:35.241Z,16.47
2018-03-19T19:07:03.314Z,16.37
2018-03-19T19:09:32.050Z,14.57
2018-03-19T19:12:01.345Z,16.57
2018-03-19T19:14:30.073Z,12.63
2018-03-19T19:17:01.080Z,12.90
2018-03-19T19:19:29.319Z,12.67
2018-03-19T19:21:59.064Z,14.63
2018-03-19T19:24:30.296Z,13.27
2018-03-19T19:26:58.716Z,13.47
2018-03-19T19:29:27.706Z,14.30
2018-03-19T19:31:56.086Z,13.37
2018-03-19T19:34:24.777Z,12.60
2018-03-19T19:36:53.537Z,14.33
2018-03-19T19:39:22.508Z,13.27
2018-03-19T19:41:52.348Z,12.90
2018-03-19T19:44:21.055Z,12.43
2018-03-19T19:46:50.898Z,12.40
2018-03-19T19:49:20.262Z,12.77
2018-03-19T19:51:51.093Z,13.77
2018-03-19T19:54:20.711Z,10.13
2018-03-19T19:56:49.673Z,11.40
2018-03-19T19:59:18.489Z,13.43
2018-03-19T20:01:46.981Z,13.57
2018-03-19T20:04:16.057Z,12.40
2018-03-19T20:06:47.510Z,12.90
2018-03-19T20:09:16.536Z,14.47
2018-03-19T20:11:46.072Z,12.07
2018-03-19T20:14:15.365Z,11.43
2018-03-19T20:16:44.128Z,11.97
2018-03-19T20:19:12.792Z,12.40
2018-03-19T20:21:43.309Z,11.77
2018-03-19T20:24:12.436Z,14.53
2018-03-19T20:26:40.609Z,16.73
2018-03-19T20:29:09.055Z,12.40
2018-03-19T20:31:37.241Z,13.03
2018-03-19T20:34:06.117Z,14.10
2018-03-19T20:36:34.365Z,12.43
2018-03-19T20:39:04.090Z,14.07
2018-03-19T20:41:31.697Z,14.97
2018-03-19T20:43:59.576Z,14.33
2018-03-19T20:46:27.187Z,16.77
2018-03-19T20:48:55.346Z,14.53
2018-03-19T20:51:23.707Z,12.93
2018-03-19T20:53:51.956Z,13.27
2018-03-19T20:56:19.953Z,15.53
2018-03-19T20:58:47.516Z,13.17
2018-03-19T21:01:16.178Z,14.67
2018-03-19T21:03:43.792Z,12.33
2018-03-19T21:06:11.367Z,16.67
2018-03-19T21:08:39.203Z,12.20
2018-03-19T21:11:06.924Z,16.60
2018-03-19T21:13:34.800Z,13.63
2018-03-19T21:16:03.484Z,15.07
2018-03-19T21:18:31.075Z,14.53
2018-03-19T21:20:58.652Z,16.57
2018-03-19T21:23:27.195Z,16.40
2018-03-19T21:25:55.463Z,15.50
2018-03-19T21:28:23.428Z,14.60
2018-03-19T21:30:51.107Z,17.60
2018-03-19T21:33:21.323Z,15.73
2018-03-19T21:35:49.394Z,13.57
2018-03-19T21:38:17.753Z,13.97
2018-03-19T21:40:46.226Z,14.13
2018-03-19T21:43:14.638Z,11.67
2018-03-19T21:45:42.528Z,13.33
2018-03-19T21:48:10.131Z,14.60
2018-03-19T21:50:37.715Z,16.03
2018-03-19T21:53:05.532Z,13.80
2018-03-19T21:55:33.148Z,12.27
2018-03-19T21:58:00.705Z,12.37
2018-03-19T22:00:28.296Z,11.80
2018-03-19T22:02:55.882Z,15.13
2018-03-19T22:05:23.960Z,12.43
2018-03-19T22:07:51.568Z,10.60
2018-03-19T22:10:19.127Z,11.57
2018-03-19T22:12:46.675Z,11.17
2018-03-19T22:15:15.256Z,11.00
2018-03-19T22:17:42.964Z,11.00
2018-03-19T22:20:11.177Z,12.33
2018-03-19T22:22:40.158Z,12.50
2018-03-19T22:25:08.209Z,10.53
2018-03-19T22:27:36.638Z,10.23
2018-03-19T22:30:05.084Z,12.80
2018-03-19T22:32:32.880Z,12.43
2018-03-19T22:35:00.457Z,10.90
2018-03-19T22:37:28.089Z,13.00
2018-03-19T22:39:55.647Z,13.13
2018-03-19T22:42:23.692Z,16.13
2018-03-19T22:44:51.235Z,15.30
2018-03-19T22:47:19.345Z,17.13
2018-03-19T22:49:46.896Z,16.93
2018-03-19T22:52:15.505Z,14.60
2018-03-19T22:54:43.061Z,16.87
2018-03-19T22:57:10.653Z,15.50
2018-03-19T22:59:38.222Z,14.37
2018-03-19T23:02:05.826Z,13.77
2018-03-19T23:04:45.793Z,14.63
2018-03-19T23:07:13.375Z,15.73
2018-03-19T23:09:40.967Z,13.87
2018-03-19T23:12:09.404Z,13.23
2018-03-19T23:14:36.992Z,15.20
2018-03-19T23:17:04.595Z,12.43
2018-03-19T23:19:32.187Z,14.27
2018-03-19T23:21:59.748Z,14.20
2018-03-19T23:24:27.352Z,14.87
2018-03-19T23:26:55.061Z,13.87
2018-03-19T23:29:22.807Z,15.03
2018-03-19T23:31:50.400Z,15.77
2018-03-19T23:34:18.341Z,17.83
2018-03-19T23:36:45.943Z,15.70
2018-03-19T23:39:13.489Z,15.80
2018-03-19T23:41:41.049Z,15.77
2018-03-19T23:44:08.673Z,15.27
2018-03-19T23:46:36.219Z,13.07
2018-03-19T23:49:04.209Z,14.83
2018-03-19T23:51:32.512Z,15.97
2018-03-19T23:54:00.109Z,14.90
2018-03-19T23:56:27.677Z,18.23
2018-03-19T23:58:55.796Z,19.90
